createdAt,value
2022-09-17T00:01:22.266Z,100249.25
2022-09-17T00:03:57.376Z,100246.34
2022-09-17T00:06:25.539Z,100246.72
2022-09-17T00:08:53.716Z,100237.97
2022-09-17T00:11:26.503Z,100246.34
2022-09-17T00:13:53.916Z,100238.84
2022-09-17T00:16:39.982Z,100253.13
2022-09-17T00:19:08.393Z,100245.31
2022-09-17T00:21:37.286Z,100257.41
2022-09-17T00:24:08.212Z,100261.63
2022-09-17T00:26:34.952Z,100255.84
2022-09-17T00:29:04.768Z,100251.91
2022-09-17T00:31:31.995Z,100251.41
2022-09-17T00:34:04.013Z,100251.41
2022-09-17T00:36:30.681Z,100251.78
2022-09-17T00:38:59.037Z,100254.16
2022-09-17T00:41:31.673Z,100255.53
2022-09-17T00:44:00.850Z,100262.94
2022-09-17T00:46:38.539Z,100256.50
2022-09-17T00:49:13.755Z,100250.28
2022-09-17T00:51:47.750Z,100255.88
2022-09-17T00:54:14.183Z,100252.78
2022-09-17T00:56:41.620Z,100254.00
2022-09-17T00:59:08.610Z,100262.19
2022-09-17T01:01:36.151Z,100263.84
2022-09-17T01:04:03.421Z,100265.75
2022-09-17T01:06:52.492Z,100267.78
2022-09-17T01:09:40.683Z,100271.53
2022-09-17T01:12:20.982Z,100269.41
2022-09-17T01:15:22.718Z,100268.94
2022-09-17T01:17:59.522Z,100271.34
2022-09-17T01:20:43.951Z,100269.19
2022-09-17T01:23:40.964Z,100268.88
2022-09-17T01:26:43.769Z,100277.78
2022-09-17T01:29:28.719Z,100268.13
2022-09-17T01:32:01.714Z,100279.38
2022-09-17T01:34:36.356Z,100281.59
2022-09-17T01:37:22.653Z,100285.06
2022-09-17T01:40:05.405Z,100288.63
2022-09-17T01:42:45.039Z,100288.25
2022-09-17T01:45:29.987Z,100295.09
2022-09-17T01:48:07.053Z,100287.00
2022-09-17T01:50:40.587Z,100284.34
2022-09-17T01:53:11.181Z,100289.78
2022-09-17T01:55:40.499Z,100280.00
2022-09-17T01:58:25.438Z,100287.41
2022-09-17T02:01:01.590Z,100288.78
2022-09-17T02:03:37.650Z,100292.91
2022-09-17T02:06:07.318Z,100290.44
2022-09-17T02:08:47.645Z,100283.00
2022-09-17T02:11:17.040Z,100289.47
2022-09-17T02:13:52.162Z,100284.19
2022-09-17T02:16:27.486Z,100287.53
2022-09-17T02:18:56.016Z,100283.09
2022-09-17T02:21:47.048Z,100290.09
2022-09-17T02:24:23.391Z,100297.41
2022-09-17T02:27:14.787Z,100290.81
2022-09-17T02:29:43.637Z,100296.75
2022-09-17T02:32:12.138Z,100290.84
2022-09-17T02:34:39.621Z,100284.75
2022-09-17T02:37:06.999Z,100286.28
2022-09-17T02:39:33.704Z,100292.94
2022-09-17T02:42:06.448Z,100288.22
2022-09-17T02:44:48.020Z,100297.19
2022-09-17T02:47:35.929Z,100307.41
2022-09-17T02:50:16.054Z,100301.44
2022-09-17T02:53:22.988Z,100302.28
2022-09-17T02:56:07.463Z,100298.41
2022-09-17T02:59:09.361Z,100296.03
2022-09-17T03:01:48.915Z,100297.41
2022-09-17T03:04:18.501Z,100291.47
2022-09-17T03:06:49.062Z,100293.03
2022-09-17T03:09:18.131Z,100296.06
2022-09-17T03:11:44.764Z,100292.00
2022-09-17T03:14:11.078Z,100299.50
2022-09-17T03:16:37.483Z,100301.88
2022-09-17T03:19:04.029Z,100295.09
2022-09-17T03:21:33.041Z,100295.28
2022-09-17T03:24:00.254Z,100303.94
2022-09-17T03:26:27.616Z,100295.94
2022-09-17T03:28:54.061Z,100291.72
2022-09-17T03:31:23.199Z,100292.94
2022-09-17T03:33:50.165Z,100291.22
2022-09-17T03:36:18.846Z,100291.03
2022-09-17T03:38:45.374Z,100288.00
2022-09-17T03:41:11.754Z,100289.00
2022-09-17T03:43:39.768Z,100292.00
2022-09-17T03:46:06.660Z,100305.41
2022-09-17T03:48:36.939Z,100308.47
2022-09-17T03:51:05.795Z,100310.47
2022-09-17T03:53:33.032Z,100308.09
2022-09-17T03:56:04.005Z,100314.34
2022-09-17T03:58:31.359Z,100313.47
2022-09-17T04:00:58.202Z,100319.88
2022-09-17T04:03:26.306Z,100324.13
2022-09-17T04:05:52.942Z,100327.16
2022-09-17T04:08:19.677Z,100319.81
2022-09-17T04:10:46.668Z,100331.41
2022-09-17T04:13:14.500Z,100320.16
2022-09-17T04:15:41.547Z,100322.53
2022-09-17T04:18:08.163Z,100324.03
2022-09-17T04:20:36.807Z,100324.53
2022-09-17T04:23:03.657Z,100322.84
2022-09-17T04:25:32.341Z,100322.97
2022-09-17T04:27:58.687Z,100325.81
2022-09-17T04:30:25.073Z,100320.59
2022-09-17T04:32:51.473Z,100329.03
2022-09-17T04:35:20.355Z,100319.50
2022-09-17T04:37:57.354Z,100319.50
2022-09-17T04:40:25.660Z,100324.75
2022-09-17T04:42:53.324Z,100321.69
2022-09-17T04:45:20.426Z,100332.69
2022-09-17T04:47:50.894Z,100335.59
2022-09-17T04:50:23.732Z,100326.81
2022-09-17T04:52:50.274Z,100332.47
2022-09-17T04:55:16.810Z,100333.97
2022-09-17T04:57:48.420Z,100342.13
2022-09-17T05:00:18.101Z,100340.22
2022-09-17T05:02:48.978Z,100344.31
2022-09-17T05:05:16.803Z,100340.75
2022-09-17T05:07:43.393Z,100351.25
2022-09-17T05:10:14.397Z,100355.84
2022-09-17T05:12:40.834Z,100348.66
2022-09-17T05:15:07.810Z,100350.34
2022-09-17T05:17:34.251Z,100358.34
2022-09-17T05:20:00.623Z,100358.47
2022-09-17T05:22:27.079Z,100355.84
2022-09-17T05:24:53.547Z,100355.19
2022-09-17T05:27:22.596Z,100349.69
2022-09-17T05:29:48.974Z,100358.69
2022-09-17T05:32:15.692Z,100359.16
2022-09-17T05:34:42.155Z,100359.84
2022-09-17T05:37:15.191Z,100363.22
2022-09-17T05:39:44.432Z,100369.22
2022-09-17T05:42:10.820Z,100374.19
2022-09-17T05:44:37.135Z,100374.19
2022-09-17T05:47:03.635Z,100374.19
2022-09-17T05:49:30.091Z,100379.44
2022-09-17T05:51:58.962Z,100376.22
2022-09-17T05:54:25.375Z,100378.47
2022-09-17T05:56:54.811Z,100378.09
2022-09-17T05:59:21.493Z,100377.56
2022-09-17T06:01:48.457Z,100385.19
2022-09-17T06:04:17.948Z,100379.44
2022-09-17T06:06:44.583Z,100379.38
2022-09-17T06:09:14.524Z,100381.19
2022-09-17T06:11:40.947Z,100376.22
2022-09-17T06:14:07.326Z,100379.59
2022-09-17T06:16:34.113Z,100386.03
2022-09-17T06:19:00.707Z,100385.03
2022-09-17T06:21:27.213Z,100385.56
2022-09-17T06:23:55.908Z,100381.41
2022-09-17T06:26:22.249Z,100385.28
2022-09-17T06:28:48.631Z,100391.94
2022-09-17T06:31:15.164Z,100401.56
2022-09-17T06:33:43.834Z,100409.34
2022-09-17T06:36:14.190Z,100405.22
2022-09-17T06:38:43.506Z,100412.88
2022-09-17T06:41:09.854Z,100402.72
2022-09-17T06:43:36.219Z,100407.25
2022-09-17T06:46:06.515Z,100411.53
2022-09-17T06:48:38.719Z,100410.59
2022-09-17T06:51:06.412Z,100411.91
2022-09-17T06:53:38.302Z,100413.41
2022-09-17T06:56:07.025Z,100411.38
2022-09-17T06:58:36.989Z,100409.13
2022-09-17T07:01:07.529Z,100406.56
2022-09-17T07:03:34.217Z,100409.28
2022-09-17T07:06:00.696Z,100408.25
2022-09-17T07:08:27.477Z,100396.88
2022-09-17T07:10:57.644Z,100400.34
2022-09-17T07:13:25.164Z,100405.91
2022-09-17T07:15:56.474Z,100403.75
2022-09-17T07:18:23.291Z,100399.88
2022-09-17T07:20:57.663Z,100407.50
2022-09-17T07:23:25.385Z,100400.53
2022-09-17T07:25:53.994Z,100405.56
2022-09-17T07:28:20.959Z,100411.09
2022-09-17T07:30:47.367Z,100408.72
2022-09-17T07:33:16.585Z,100407.50
2022-09-17T07:35:42.989Z,100412.66
2022-09-17T07:38:09.410Z,100411.09
2022-09-17T07:40:41.027Z,100410.94
2022-09-17T07:43:08.895Z,100419.56
2022-09-17T07:45:35.295Z,100419.19
2022-09-17T07:48:01.774Z,100425.25
2022-09-17T07:50:28.447Z,100421.34
2022-09-17T07:52:56.960Z,100431.25
2022-09-17T07:55:25.458Z,100424.16
2022-09-17T07:57:52.425Z,100426.84
2022-09-17T08:00:19.375Z,100410.66
2022-09-17T08:02:45.827Z,100416.94
2022-09-17T08:05:12.409Z,100423.19
2022-09-17T08:07:38.814Z,100426.06
2022-09-17T08:10:06.071Z,100412.50
2022-09-17T08:12:32.435Z,100421.25
2022-09-17T08:14:58.773Z,100433.50
2022-09-17T08:17:25.168Z,100428.84
2022-09-17T08:19:51.531Z,100420.50
2022-09-17T08:22:17.875Z,100427.03
2022-09-17T08:24:44.672Z,100427.25
2022-09-17T08:27:11.033Z,100430.16
2022-09-17T08:29:37.404Z,100435.41
2022-09-17T08:32:03.876Z,100445.69
2022-09-17T08:34:30.299Z,100432.00
2022-09-17T08:36:56.679Z,100438.66
2022-09-17T08:39:25.437Z,100431.09
2022-09-17T08:42:10.543Z,100439.28
2022-09-17T08:44:42.593Z,100447.53
2022-09-17T08:47:27.540Z,100447.06
2022-09-17T08:50:08.229Z,100450.47
2022-09-17T08:53:16.563Z,100434.22
2022-09-17T08:55:47.005Z,100431.47
2022-09-17T08:58:40.729Z,100439.25
2022-09-17T09:01:09.892Z,100434.47
2022-09-17T09:03:51.401Z,100440.22
2022-09-17T09:06:21.693Z,100455.41
2022-09-17T09:08:56.646Z,100434.94
2022-09-17T09:11:30.964Z,100427.78
2022-09-17T09:14:32.295Z,100425.44
2022-09-17T09:17:03.388Z,100424.63
2022-09-17T09:19:34.039Z,100433.72
2022-09-17T09:22:03.403Z,100423.25
2022-09-17T09:24:41.488Z,100462.38
2022-09-17T09:27:28.029Z,100439.63
2022-09-17T09:30:06.627Z,100461.56
2022-09-17T09:32:57.097Z,100441.13
2022-09-17T09:35:28.122Z,100448.72
2022-09-17T09:38:01.194Z,100448.06
2022-09-17T09:40:45.739Z,100430.25
2022-09-17T09:43:21.115Z,100464.25
2022-09-17T09:46:14.755Z,100429.41
2022-09-17T09:48:55.940Z,100440.06
2022-09-17T09:51:33.669Z,100474.88
2022-09-17T09:54:18.540Z,100430.00
2022-09-17T09:56:56.068Z,100431.22
2022-09-17T09:59:22.935Z,100455.28
2022-09-17T10:01:49.503Z,100475.50
2022-09-17T10:04:22.724Z,100456.28
2022-09-17T10:07:07.567Z,100465.53
2022-09-17T10:09:37.045Z,100437.19
2022-09-17T10:12:03.610Z,100445.78
2022-09-17T10:14:33.130Z,100465.66
2022-09-17T10:17:14.710Z,100418.47
2022-09-17T10:19:42.410Z,100419.72
2022-09-17T10:22:32.283Z,100477.06
2022-09-17T10:25:00.899Z,100449.44
2022-09-17T10:27:28.591Z,100518.25
2022-09-17T10:30:13.733Z,100487.56
2022-09-17T10:32:40.079Z,100450.13
2022-09-17T10:35:28.203Z,100468.19
2022-09-17T10:37:54.981Z,100474.13
2022-09-17T10:40:21.399Z,100493.63
2022-09-17T10:42:49.884Z,100501.66
2022-09-17T10:45:29.328Z,100493.97
2022-09-17T10:47:58.325Z,100477.63
2022-09-17T10:50:28.801Z,100484.03
2022-09-17T10:53:04.356Z,100523.00
2022-09-17T10:55:52.243Z,100484.00
2022-09-17T10:58:21.938Z,100499.00
2022-09-17T11:01:00.521Z,100484.25
2022-09-17T11:04:04.687Z,100500.22
2022-09-17T11:06:49.367Z,100487.28
2022-09-17T11:10:05.896Z,100455.09
2022-09-17T11:12:39.309Z,100507.97
2022-09-17T11:15:28.590Z,100486.44
2022-09-17T11:18:23.432Z,100457.97
2022-09-17T11:21:13.848Z,100474.94
2022-09-17T11:23:52.110Z,100457.69
2022-09-17T11:26:35.467Z,100433.63
2022-09-17T11:29:04.750Z,100443.59
2022-09-17T11:31:37.147Z,100522.16
2022-09-17T11:34:32.766Z,100466.16
2022-09-17T11:37:23.550Z,100486.13
2022-09-17T11:39:57.656Z,100491.91
2022-09-17T11:42:55.536Z,100474.88
2022-09-17T11:45:36.506Z,100461.56
2022-09-17T11:48:05.335Z,100476.81
2022-09-17T11:50:37.171Z,100448.97
2022-09-17T11:53:15.176Z,100431.59
2022-09-17T11:56:02.446Z,100429.88
2022-09-17T11:59:11.040Z,100459.81
2022-09-17T12:01:49.445Z,100450.53
2022-09-17T12:04:40.684Z,100457.53
2022-09-17T12:07:31.444Z,100420.38
2022-09-17T12:10:25.011Z,100420.97
2022-09-17T12:13:07.228Z,100417.22
2022-09-17T12:15:38.413Z,100410.63
2022-09-17T12:18:30.408Z,100419.03
2022-09-17T12:20:55.537Z,100436.81
2022-09-17T12:23:37.105Z,100453.19
2022-09-17T12:26:25.647Z,100446.81
2022-09-17T12:29:21.381Z,100465.56
2022-09-17T12:32:15.950Z,100418.28
2022-09-17T12:34:56.180Z,100415.72
2022-09-17T12:37:44.076Z,100458.31
2022-09-17T12:40:39.303Z,100460.88
2022-09-17T12:43:28.638Z,100442.59
2022-09-17T12:46:32.628Z,100466.44
2022-09-17T12:49:02.276Z,100508.78
2022-09-17T12:51:39.855Z,100489.09
2022-09-17T12:54:20.498Z,100499.66
2022-09-17T12:57:07.113Z,100473.56
2022-09-17T12:59:40.199Z,100467.38
2022-09-17T13:02:31.753Z,100454.84
2022-09-17T13:05:09.909Z,100449.53
2022-09-17T13:08:01.921Z,100418.28
2022-09-17T13:10:46.748Z,100396.22
2022-09-17T13:13:28.147Z,100399.63
2022-09-17T13:16:04.998Z,100377.91
2022-09-17T13:18:59.329Z,100398.53
2022-09-17T13:21:40.440Z,100378.88
2022-09-17T13:24:29.790Z,100399.16
2022-09-17T13:26:58.594Z,100371.84
2022-09-17T13:29:44.185Z,100351.06
2022-09-17T13:32:32.363Z,100352.16
2022-09-17T13:35:18.665Z,100351.25
2022-09-17T13:37:56.521Z,100369.34
2022-09-17T13:40:30.471Z,100370.41
2022-09-17T13:42:58.053Z,100369.03
2022-09-17T13:45:26.480Z,100362.88
2022-09-17T13:48:06.435Z,100354.00
2022-09-17T13:50:32.870Z,100401.63
2022-09-17T13:53:14.387Z,100423.41
2022-09-17T13:55:51.398Z,100389.78
2022-09-17T13:58:23.178Z,100386.06
2022-09-17T14:00:55.939Z,100391.06
2022-09-17T14:03:31.345Z,100378.53
2022-09-17T14:06:24.608Z,100379.72
2022-09-17T14:08:56.297Z,100399.38
2022-09-17T14:11:25.317Z,100414.53
2022-09-17T14:13:56.304Z,100379.50
2022-09-17T14:16:25.649Z,100354.09
2022-09-17T14:19:17.233Z,100380.31
2022-09-17T14:22:02.036Z,100349.97
2022-09-17T14:24:44.194Z,100380.03
2022-09-17T14:27:10.460Z,100395.47
2022-09-17T14:29:48.694Z,100388.38
2022-09-17T14:32:21.904Z,100371.06
2022-09-17T14:34:49.683Z,100432.28
2022-09-17T14:37:20.648Z,100399.25
2022-09-17T14:39:49.140Z,100393.81
2022-09-17T14:42:23.850Z,100391.91
2022-09-17T14:45:06.617Z,100381.63
2022-09-17T14:47:33.125Z,100408.69
2022-09-17T14:50:20.496Z,100387.38
2022-09-17T14:52:54.409Z,100396.03
2022-09-17T14:55:25.325Z,100400.09
2022-09-17T14:58:02.419Z,100381.50
2022-09-17T15:00:34.133Z,100404.63
2022-09-17T15:03:00.700Z,100386.72
2022-09-17T15:05:30.264Z,100393.47
2022-09-17T15:08:16.570Z,100396.03
2022-09-17T15:10:56.934Z,100349.50
2022-09-17T15:13:26.543Z,100371.75
2022-09-17T15:15:59.706Z,100380.44
2022-09-17T15:18:52.591Z,100377.06
2022-09-17T15:21:43.821Z,100367.28
2022-09-17T15:24:35.162Z,100396.88
2022-09-17T15:27:31.684Z,100384.25
2022-09-17T15:30:03.416Z,100389.59
2022-09-17T15:32:30.510Z,100396.84
2022-09-17T15:35:15.474Z,100393.22
2022-09-17T15:38:11.537Z,100401.06
2022-09-17T15:40:39.177Z,100384.03
2022-09-17T15:43:22.667Z,100385.72
2022-09-17T15:45:49.183Z,100397.59
2022-09-17T15:48:30.107Z,100371.19
2022-09-17T15:50:58.452Z,100376.44
2022-09-17T15:53:28.595Z,100346.59
2022-09-17T15:56:15.252Z,100346.34
2022-09-17T15:58:41.600Z,100364.91
2022-09-17T16:01:13.866Z,100368.50
2022-09-17T16:03:40.427Z,100376.06
2022-09-17T16:06:19.002Z,100386.91
2022-09-17T16:08:50.699Z,100399.41
2022-09-17T16:11:22.094Z,100381.97
2022-09-17T16:13:49.907Z,100381.16
2022-09-17T16:16:21.860Z,100405.28
2022-09-17T16:18:48.928Z,100386.09
2022-09-17T16:21:17.277Z,100370.91
2022-09-17T16:23:46.574Z,100378.53
2022-09-17T16:26:23.856Z,100389.94
2022-09-17T16:28:53.646Z,100373.50
2022-09-17T16:31:20.919Z,100371.84
2022-09-17T16:33:51.978Z,100357.94
2022-09-17T16:36:18.760Z,100373.34
2022-09-17T16:38:45.163Z,100381.81
2022-09-17T16:41:11.512Z,100387.69
2022-09-17T16:43:40.108Z,100376.09
2022-09-17T16:46:10.352Z,100377.16
2022-09-17T16:48:43.521Z,100391.28
2022-09-17T16:51:12.125Z,100386.84
2022-09-17T16:53:38.680Z,100406.28
2022-09-17T16:56:09.160Z,100402.28
2022-09-17T16:58:35.656Z,100394.03
2022-09-17T17:01:13.955Z,100407.34
2022-09-17T17:03:41.198Z,100424.41
2022-09-17T17:06:19.309Z,100414.69
2022-09-17T17:08:45.847Z,100429.84
2022-09-17T17:11:12.488Z,100435.25
2022-09-17T17:13:39.275Z,100440.66
2022-09-17T17:16:13.210Z,100431.25
2022-09-17T17:18:43.502Z,100423.75
2022-09-17T17:21:11.753Z,100413.81
2022-09-17T17:23:43.384Z,100436.81
2022-09-17T17:26:10.002Z,100443.47
2022-09-17T17:28:38.756Z,100441.09
2022-09-17T17:31:08.184Z,100439.34
2022-09-17T17:33:34.668Z,100431.50
2022-09-17T17:36:07.616Z,100436.50
2022-09-17T17:38:35.349Z,100441.03
2022-09-17T17:41:02.952Z,100452.13
2022-09-17T17:43:34.324Z,100452.91
2022-09-17T17:46:05.158Z,100454.91
2022-09-17T17:48:31.630Z,100456.69
2022-09-17T17:51:08.496Z,100455.53
2022-09-17T17:53:35.417Z,100451.94
2022-09-17T17:56:06.438Z,100457.63
2022-09-17T17:58:33.468Z,100457.19
2022-09-17T18:01:00.538Z,100444.88
2022-09-17T18:03:27.023Z,100453.53
2022-09-17T18:06:01.343Z,100455.59
2022-09-17T18:08:27.751Z,100453.31
2022-09-17T18:10:56.010Z,100454.94
2022-09-17T18:13:26.292Z,100463.97
2022-09-17T18:16:02.357Z,100476.78
2022-09-17T18:18:43.615Z,100478.03
2022-09-17T18:21:14.084Z,100479.69
2022-09-17T18:23:41.482Z,100481.69
2022-09-17T18:26:11.291Z,100487.44
2022-09-17T18:28:37.769Z,100488.94
2022-09-17T18:31:08.229Z,100498.34
2022-09-17T18:33:39.771Z,100499.09
2022-09-17T18:36:06.350Z,100501.53
2022-09-17T18:38:33.019Z,100513.47
2022-09-17T18:41:04.426Z,100516.50
2022-09-17T18:43:33.356Z,100514.63
2022-09-17T18:46:00.842Z,100527.41
2022-09-17T18:48:28.156Z,100536.25
2022-09-17T18:51:08.732Z,100538.03
2022-09-17T18:53:37.014Z,100543.88
2022-09-17T18:56:19.391Z,100544.16
2022-09-17T18:58:46.659Z,100539.81
2022-09-17T19:01:16.674Z,100549.72
2022-09-17T19:03:45.592Z,100558.38
2022-09-17T19:06:15.217Z,100549.63
2022-09-17T19:08:42.869Z,100561.69
2022-09-17T19:11:09.795Z,100572.78
2022-09-17T19:13:41.452Z,100576.75
2022-09-17T19:16:08.651Z,100578.72
2022-09-17T19:18:38.105Z,100580.22
2022-09-17T19:21:07.533Z,100572.59
2022-09-17T19:23:34.512Z,100581.03
2022-09-17T19:26:17.419Z,100582.09
2022-09-17T19:28:43.888Z,100593.38
2022-09-17T19:31:12.780Z,100594.44
2022-09-17T19:33:44.229Z,100589.16
2022-09-17T19:36:12.600Z,100580.88
2022-09-17T19:38:39.565Z,100584.63
2022-09-17T19:41:09.302Z,100586.72
2022-09-17T19:43:35.690Z,100582.28
2022-09-17T19:46:05.404Z,100572.31
2022-09-17T19:48:40.215Z,100564.31
2022-09-17T19:51:07.165Z,100558.47
2022-09-17T19:53:33.649Z,100559.31
2022-09-17T19:56:03.604Z,100585.50
2022-09-17T19:58:30.016Z,100576.44
2022-09-17T20:01:00.222Z,100577.22
2022-09-17T20:03:26.956Z,100579.72
2022-09-17T20:06:05.413Z,100580.88
2022-09-17T20:08:32.623Z,100584.81
2022-09-17T20:11:07.292Z,100586.69
2022-09-17T20:13:34.529Z,100594.22
2022-09-17T20:16:12.931Z,100591.13
2022-09-17T20:18:39.615Z,100588.88
2022-09-17T20:21:08.322Z,100585.50
2022-09-17T20:23:40.022Z,100590.75
2022-09-17T20:26:09.229Z,100592.44
2022-09-17T20:28:35.619Z,100595.00
2022-09-17T20:31:16.921Z,100598.19
2022-09-17T20:34:05.933Z,100605.53
2022-09-17T20:36:35.290Z,100602.44
2022-09-17T20:39:22.194Z,100609.13
2022-09-17T20:41:48.826Z,100601.09
2022-09-17T20:44:15.161Z,100608.44
2022-09-17T20:46:41.761Z,100608.44
2022-09-17T20:49:17.993Z,100605.91
2022-09-17T20:51:44.347Z,100611.75
2022-09-17T20:54:10.940Z,100607.31
2022-09-17T20:56:37.357Z,100619.09
2022-09-17T20:59:14.205Z,100614.81
2022-09-17T21:01:46.878Z,100618.78
2022-09-17T21:04:15.899Z,100615.03
2022-09-17T21:06:43.753Z,100611.25
2022-09-17T21:09:12.257Z,100616.91
2022-09-17T21:11:38.717Z,100607.41
2022-09-17T21:14:05.351Z,100609.94
2022-09-17T21:16:39.138Z,100621.50
2022-09-17T21:19:07.934Z,100612.69
2022-09-17T21:21:34.650Z,100615.03
2022-09-17T21:24:07.349Z,100613.69
2022-09-17T21:26:34.785Z,100617.06
2022-09-17T21:29:01.678Z,100628.56
2022-09-17T21:31:32.581Z,100628.06
2022-09-17T21:34:01.957Z,100635.06
2022-09-17T21:36:30.871Z,100625.16
2022-09-17T21:39:03.560Z,100635.22
2022-09-17T21:41:30.086Z,100632.50
2022-09-17T21:43:56.762Z,100633.91
2022-09-17T21:46:26.397Z,100628.44
2022-09-17T21:48:55.975Z,100622.03
2022-09-17T21:51:25.561Z,100628.16
2022-09-17T21:53:53.373Z,100622.34
2022-09-17T21:56:21.086Z,100618.59
2022-09-17T21:58:54.595Z,100629.84
2022-09-17T22:01:27.143Z,100629.19
2022-09-17T22:03:56.372Z,100627.13
2022-09-17T22:06:31.360Z,100628.66
2022-09-17T22:08:59.493Z,100630.53
2022-09-17T22:11:33.797Z,100629.84
2022-09-17T22:14:08.954Z,100631.53
2022-09-17T22:16:40.137Z,100627.97
2022-09-17T22:19:08.602Z,100627.78
2022-09-17T22:21:37.777Z,100632.56
2022-09-17T22:24:09.223Z,100637.38
2022-09-17T22:26:39.490Z,100641.59
2022-09-17T22:29:09.288Z,100641.81
2022-09-17T22:31:36.040Z,100632.56
2022-09-17T22:34:08.078Z,100634.66
2022-09-17T22:36:37.558Z,100637.00
2022-09-17T22:39:04.939Z,100633.63
2022-09-17T22:41:34.117Z,100634.66
2022-09-17T22:44:03.237Z,100630.22
2022-09-17T22:46:32.737Z,100629.38
2022-09-17T22:49:00.122Z,100631.25
2022-09-17T22:51:28.879Z,100622.72
2022-09-17T22:53:56.520Z,100630.03
2022-09-17T22:56:26.992Z,100630.22
2022-09-17T22:58:53.995Z,100630.22
2022-09-17T23:01:24.695Z,100622.88
2022-09-17T23:03:52.283Z,100637.53
2022-09-17T23:06:24.933Z,100632.28
2022-09-17T23:08:52.408Z,100623.63
2022-09-17T23:11:31.033Z,100623.06
2022-09-17T23:14:02.086Z,100629.19
2022-09-17T23:16:35.759Z,100625.78
2022-09-17T23:19:02.271Z,100619.13
2022-09-17T23:21:28.861Z,100622.03
2022-09-17T23:23:55.268Z,100625.44
2022-09-17T23:26:26.396Z,100615.34
2022-09-17T23:28:53.201Z,100615.34
2022-09-17T23:31:21.202Z,100624.59
2022-09-17T23:33:48.506Z,100615.00
2022-09-17T23:36:19.338Z,100622.34
2022-09-17T23:38:47.444Z,100613.13
2022-09-17T23:41:35.529Z,100626.78
2022-09-17T23:44:05.319Z,100620.09
2022-09-17T23:46:33.472Z,100609.34
2022-09-17T23:49:00.465Z,100615.28
2022-09-17T23:51:30.684Z,100609.66
2022-09-17T23:53:57.883Z,100614.94
2022-09-17T23:56:26.549Z,100619.16
2022-09-17T23:58:54.545Z,100614.94
